Terminal Aerodrome Forecast
Issued by NWS Pendleton, OR

Home | Current Version | Previous Version | Text Only | Print | Product List | Glossary On
Versions: 1 2 3 4 5 6 7 8 9 10 11 12 13 14 15 16 17 18
000
FTUS46 KPDT 272300
TAFPDT
TAF
KPDT 272322Z 2800/2824 18011KT P6SM VCSH SCT020 OVC040
     FM280300 26015G25KT P6SM SCT040 BKN080
     FM281000 26014KT P6SM SCT030 OVC040
     FM281500 27015KT P6SM SCT025 OVC040=

USA.gov is the U.S. government's official web portal to all federal, state and local government web resources and services.